sensor_id;sensor_type;location;lat;lon;timestamp;temperature;humidity
12817;DHT22;6473;51.552;6.716;2023-06-19T00:00:28;23.80;1.00
12817;DHT22;6473;51.552;6.716;2023-06-19T00:02:56;23.70;1.00
12817;DHT22;6473;51.552;6.716;2023-06-19T00:05:22;23.60;1.00
12817;DHT22;6473;51.552;6.716;2023-06-19T00:07:50;23.60;1.00
12817;DHT22;6473;51.552;6.716;2023-06-19T00:10:17;23.50;1.00
12817;DHT22;6473;51.552;6.716;2023-06-19T00:12:44;23.40;1.60
12817;DHT22;6473;51.552;6.716;2023-06-19T00:15:11;23.40;3.00
12817;DHT22;6473;51.552;6.716;2023-06-19T00:17:39;23.30;5.10
12817;DHT22;6473;51.552;6.716;2023-06-19T00:20:07;23.20;6.60
12817;DHT22;6473;51.552;6.716;2023-06-19T00:22:35;23.20;8.00
12817;DHT22;6473;51.552;6.716;2023-06-19T00:25:02;23.10;9.80
12817;DHT22;6473;51.552;6.716;2023-06-19T00:27:29;23.00;12.40
12817;DHT22;6473;51.552;6.716;2023-06-19T00:29:56;23.00;15.40
12817;DHT22;6473;51.552;6.716;2023-06-19T00:32:27;22.90;18.70
12817;DHT22;6473;51.552;6.716;2023-06-19T00:34:57;22.80;20.20
12817;DHT22;6473;51.552;6.716;2023-06-19T00:37:26;22.70;22.30
12817;DHT22;6473;51.552;6.716;2023-06-19T00:39:59;22.60;25.10
12817;DHT22;6473;51.552;6.716;2023-06-19T00:42:26;22.60;26.10
12817;DHT22;6473;51.552;6.716;2023-06-19T00:44:53;22.50;27.40
12817;DHT22;6473;51.552;6.716;2023-06-19T00:47:20;22.50;29.70
12817;DHT22;6473;51.552;6.716;2023-06-19T00:49:46;22.40;29.90
12817;DHT22;6473;51.552;6.716;2023-06-19T00:52:16;22.40;31.10
12817;DHT22;6473;51.552;6.716;2023-06-19T00:54:43;22.40;32.00
12817;DHT22;6473;51.552;6.716;2023-06-19T00:57:10;22.30;33.60
12817;DHT22;6473;51.552;6.716;2023-06-19T00:59:37;22.20;35.90
12817;DHT22;6473;51.552;6.716;2023-06-19T01:02:04;22.20;37.30
12817;DHT22;6473;51.552;6.716;2023-06-19T01:04:31;22.10;38.80
12817;DHT22;6473;51.552;6.716;2023-06-19T01:07:04;22.10;40.10
12817;DHT22;6473;51.552;6.716;2023-06-19T01:09:47;22.00;40.90
12817;DHT22;6473;51.552;6.716;2023-06-19T01:12:18;22.00;44.00
12817;DHT22;6473;51.552;6.716;2023-06-19T01:14:50;22.00;46.00
12817;DHT22;6473;51.552;6.716;2023-06-19T01:17:20;21.80;49.00
12817;DHT22;6473;51.552;6.716;2023-06-19T01:19:47;21.80;50.10
12817;DHT22;6473;51.552;6.716;2023-06-19T01:22:24;21.80;51.70
12817;DHT22;6473;51.552;6.716;2023-06-19T01:24:51;21.70;54.60
12817;DHT22;6473;51.552;6.716;2023-06-19T01:27:18;21.60;57.50
12817;DHT22;6473;51.552;6.716;2023-06-19T01:29:45;21.50;58.90
12817;DHT22;6473;51.552;6.716;2023-06-19T01:32:17;21.50;60.30
12817;DHT22;6473;51.552;6.716;2023-06-19T01:34:46;21.50;61.20
12817;DHT22;6473;51.552;6.716;2023-06-19T01:37:14;21.40;62.90
12817;DHT22;6473;51.552;6.716;2023-06-19T01:39:45;21.40;64.50
12817;DHT22;6473;51.552;6.716;2023-06-19T01:42:13;21.40;65.00
12817;DHT22;6473;51.552;6.716;2023-06-19T01:44:40;21.40;66.50
12817;DHT22;6473;51.552;6.716;2023-06-19T01:47:09;21.30;66.80
12817;DHT22;6473;51.552;6.716;2023-06-19T01:49:36;21.20;69.80
12817;DHT22;6473;51.552;6.716;2023-06-19T01:52:04;21.20;70.40
12817;DHT22;6473;51.552;6.716;2023-06-19T01:54:34;21.20;71.30
12817;DHT22;6473;51.552;6.716;2023-06-19T01:57:02;21.20;72.50
12817;DHT22;6473;51.552;6.716;2023-06-19T01:59:31;21.10;74.90
12817;DHT22;6473;51.552;6.716;2023-06-19T02:01:57;21.10;76.20
12817;DHT22;6473;51.552;6.716;2023-06-19T02:04:24;21.00;77.10
12817;DHT22;6473;51.552;6.716;2023-06-19T02:06:51;21.00;79.40
12817;DHT22;6473;51.552;6.716;2023-06-19T02:09:18;21.00;80.20
12817;DHT22;6473;51.552;6.716;2023-06-19T02:11:46;20.90;81.80
12817;DHT22;6473;51.552;6.716;2023-06-19T02:14:14;20.90;84.30
12817;DHT22;6473;51.552;6.716;2023-06-19T02:16:41;20.80;86.30
12817;DHT22;6473;51.552;6.716;2023-06-19T02:19:10;20.70;88.70
12817;DHT22;6473;51.552;6.716;2023-06-19T02:21:38;20.70;90.30
12817;DHT22;6473;51.552;6.716;2023-06-19T02:24:05;20.70;91.30
12817;DHT22;6473;51.552;6.716;2023-06-19T02:26:32;20.60;92.00
12817;DHT22;6473;51.552;6.716;2023-06-19T02:28:59;20.60;92.80
12817;DHT22;6473;51.552;6.716;2023-06-19T02:31:27;20.50;94.50
12817;DHT22;6473;51.552;6.716;2023-06-19T02:33:54;20.50;94.90
12817;DHT22;6473;51.552;6.716;2023-06-19T02:36:21;20.50;95.60
12817;DHT22;6473;51.552;6.716;2023-06-19T02:38:48;20.50;95.40
12817;DHT22;6473;51.552;6.716;2023-06-19T02:41:15;20.60;95.40
12817;DHT22;6473;51.552;6.716;2023-06-19T02:43:44;20.60;94.70
12817;DHT22;6473;51.552;6.716;2023-06-19T02:46:11;20.60;94.90
12817;DHT22;6473;51.552;6.716;2023-06-19T02:48:39;20.60;95.60
12817;DHT22;6473;51.552;6.716;2023-06-19T02:51:06;20.60;95.20
12817;DHT22;6473;51.552;6.716;2023-06-19T02:53:33;20.60;94.80
12817;DHT22;6473;51.552;6.716;2023-06-19T02:56:00;20.60;95.30
12817;DHT22;6473;51.552;6.716;2023-06-19T02:58:26;20.70;95.40
12817;DHT22;6473;51.552;6.716;2023-06-19T03:00:55;20.70;93.60
12817;DHT22;6473;51.552;6.716;2023-06-19T03:03:22;20.80;93.10
12817;DHT22;6473;51.552;6.716;2023-06-19T03:05:51;20.80;92.60
12817;DHT22;6473;51.552;6.716;2023-06-19T03:08:18;20.80;91.80
12817;DHT22;6473;51.552;6.716;2023-06-19T03:10:45;20.90;90.40
12817;DHT22;6473;51.552;6.716;2023-06-19T03:13:13;20.90;87.90
12817;DHT22;6473;51.552;6.716;2023-06-19T03:15:40;21.00;84.80
12817;DHT22;6473;51.552;6.716;2023-06-19T03:18:06;21.10;83.70
12817;DHT22;6473;51.552;6.716;2023-06-19T03:20:37;21.10;82.70
12817;DHT22;6473;51.552;6.716;2023-06-19T03:23:05;21.10;82.90
12817;DHT22;6473;51.552;6.716;2023-06-19T03:25:32;21.20;82.00
12817;DHT22;6473;51.552;6.716;2023-06-19T03:28:02;21.20;82.00
12817;DHT22;6473;51.552;6.716;2023-06-19T03:30:29;21.20;81.90
12817;DHT22;6473;51.552;6.716;2023-06-19T03:32:56;21.20;82.70
12817;DHT22;6473;51.552;6.716;2023-06-19T03:35:44;21.10;83.70
12817;DHT22;6473;51.552;6.716;2023-06-19T03:38:27;21.10;84.90
12817;DHT22;6473;51.552;6.716;2023-06-19T03:40:54;21.00;86.50
12817;DHT22;6473;51.552;6.716;2023-06-19T03:43:21;21.00;87.60
12817;DHT22;6473;51.552;6.716;2023-06-19T03:45:48;20.90;89.90
12817;DHT22;6473;51.552;6.716;2023-06-19T03:48:15;20.90;90.20
12817;DHT22;6473;51.552;6.716;2023-06-19T03:50:42;20.80;91.10
12817;DHT22;6473;51.552;6.716;2023-06-19T03:53:09;20.80;91.70
12817;DHT22;6473;51.552;6.716;2023-06-19T03:55:38;20.80;92.50
12817;DHT22;6473;51.552;6.716;2023-06-19T03:58:05;20.80;92.70
12817;DHT22;6473;51.552;6.716;2023-06-19T04:00:33;20.70;93.90
12817;DHT22;6473;51.552;6.716;2023-06-19T04:02:59;20.70;94.40
12817;DHT22;6473;51.552;6.716;2023-06-19T04:05:26;20.60;94.90
12817;DHT22;6473;51.552;6.716;2023-06-19T04:07:53;20.60;95.40
12817;DHT22;6473;51.552;6.716;2023-06-19T04:10:20;20.50;96.60
12817;DHT22;6473;51.552;6.716;2023-06-19T04:12:48;20.50;97.40
12817;DHT22;6473;51.552;6.716;2023-06-19T04:15:15;20.40;98.70
12817;DHT22;6473;51.552;6.716;2023-06-19T04:17:42;20.30;99.90
12817;DHT22;6473;51.552;6.716;2023-06-19T04:20:10;20.20;99.90
12817;DHT22;6473;51.552;6.716;2023-06-19T04:22:38;20.20;99.90
12817;DHT22;6473;51.552;6.716;2023-06-19T04:25:06;20.10;99.90
12817;DHT22;6473;51.552;6.716;2023-06-19T04:27:33;20.10;99.90
12817;DHT22;6473;51.552;6.716;2023-06-19T04:30:03;20.00;99.90
12817;DHT22;6473;51.552;6.716;2023-06-19T04:32:32;20.00;99.90
12817;DHT22;6473;51.552;6.716;2023-06-19T04:35:00;20.10;99.90
12817;DHT22;6473;51.552;6.716;2023-06-19T04:37:27;20.00;99.90
12817;DHT22;6473;51.552;6.716;2023-06-19T04:39:53;20.00;99.90
12817;DHT22;6473;51.552;6.716;2023-06-19T04:42:21;20.00;99.90
12817;DHT22;6473;51.552;6.716;2023-06-19T04:44:48;20.00;99.90
12817;DHT22;6473;51.552;6.716;2023-06-19T04:47:19;20.00;99.90
12817;DHT22;6473;51.552;6.716;2023-06-19T04:49:47;20.00;99.90
12817;DHT22;6473;51.552;6.716;2023-06-19T04:52:14;20.10;99.90
12817;DHT22;6473;51.552;6.716;2023-06-19T04:54:41;19.90;99.90
12817;DHT22;6473;51.552;6.716;2023-06-19T04:57:08;20.00;99.90
12817;DHT22;6473;51.552;6.716;2023-06-19T04:59:36;20.10;99.90
12817;DHT22;6473;51.552;6.716;2023-06-19T05:02:03;20.00;99.90
12817;DHT22;6473;51.552;6.716;2023-06-19T05:04:31;20.00;99.90
12817;DHT22;6473;51.552;6.716;2023-06-19T05:06:58;20.10;99.90
12817;DHT22;6473;51.552;6.716;2023-06-19T05:09:25;20.10;99.90
12817;DHT22;6473;51.552;6.716;2023-06-19T05:11:52;20.10;99.90
12817;DHT22;6473;51.552;6.716;2023-06-19T05:14:19;20.10;99.90
12817;DHT22;6473;51.552;6.716;2023-06-19T05:16:46;20.10;99.90
12817;DHT22;6473;51.552;6.716;2023-06-19T05:19:13;20.20;99.90
12817;DHT22;6473;51.552;6.716;2023-06-19T05:21:41;20.30;99.90
12817;DHT22;6473;51.552;6.716;2023-06-19T05:24:08;20.20;99.90
12817;DHT22;6473;51.552;6.716;2023-06-19T05:26:34;20.30;99.90
12817;DHT22;6473;51.552;6.716;2023-06-19T05:29:01;20.40;99.90
12817;DHT22;6473;51.552;6.716;2023-06-19T05:31:28;20.40;99.90
12817;DHT22;6473;51.552;6.716;2023-06-19T05:33:55;20.40;99.90
12817;DHT22;6473;51.552;6.716;2023-06-19T05:36:24;20.40;99.90
12817;DHT22;6473;51.552;6.716;2023-06-19T05:38:52;20.40;99.90
12817;DHT22;6473;51.552;6.716;2023-06-19T05:41:19;20.40;99.90
12817;DHT22;6473;51.552;6.716;2023-06-19T05:43:46;20.40;99.90
12817;DHT22;6473;51.552;6.716;2023-06-19T05:46:13;20.40;99.90
12817;DHT22;6473;51.552;6.716;2023-06-19T05:48:39;20.40;99.90
12817;DHT22;6473;51.552;6.716;2023-06-19T05:51:06;20.40;99.90
12817;DHT22;6473;51.552;6.716;2023-06-19T05:53:33;20.30;99.90
12817;DHT22;6473;51.552;6.716;2023-06-19T05:56:01;20.40;99.90
12817;DHT22;6473;51.552;6.716;2023-06-19T05:58:28;20.30;99.90
12817;DHT22;6473;51.552;6.716;2023-06-19T06:00:55;20.40;99.90
12817;DHT22;6473;51.552;6.716;2023-06-19T06:03:23;20.40;99.90
12817;DHT22;6473;51.552;6.716;2023-06-19T06:05:50;20.40;99.90
12817;DHT22;6473;51.552;6.716;2023-06-19T06:08:17;20.30;99.90
12817;DHT22;6473;51.552;6.716;2023-06-19T06:10:44;20.40;99.90
12817;DHT22;6473;51.552;6.716;2023-06-19T06:13:12;20.30;99.90
12817;DHT22;6473;51.552;6.716;2023-06-19T06:15:39;20.40;99.90
12817;DHT22;6473;51.552;6.716;2023-06-19T06:18:06;20.20;99.90
12817;DHT22;6473;51.552;6.716;2023-06-19T06:20:33;20.30;99.90
12817;DHT22;6473;51.552;6.716;2023-06-19T06:22:59;20.30;99.90
12817;DHT22;6473;51.552;6.716;2023-06-19T06:25:26;20.40;99.90
12817;DHT22;6473;51.552;6.716;2023-06-19T06:27:53;20.50;99.90
12817;DHT22;6473;51.552;6.716;2023-06-19T06:30:22;20.60;99.90
12817;DHT22;6473;51.552;6.716;2023-06-19T06:32:50;20.70;99.90
12817;DHT22;6473;51.552;6.716;2023-06-19T06:35:17;20.70;99.90
12817;DHT22;6473;51.552;6.716;2023-06-19T06:37:44;20.60;99.90
12817;DHT22;6473;51.552;6.716;2023-06-19T06:40:11;20.60;99.90
12817;DHT22;6473;51.552;6.716;2023-06-19T06:42:38;20.60;99.90
12817;DHT22;6473;51.552;6.716;2023-06-19T06:45:06;20.70;99.90
12817;DHT22;6473;51.552;6.716;2023-06-19T06:47:35;20.90;99.90
12817;DHT22;6473;51.552;6.716;2023-06-19T06:50:03;21.40;99.90
12817;DHT22;6473;51.552;6.716;2023-06-19T06:52:30;21.70;99.90
12817;DHT22;6473;51.552;6.716;2023-06-19T06:55:00;21.90;99.90
12817;DHT22;6473;51.552;6.716;2023-06-19T06:57:28;21.40;99.90
12817;DHT22;6473;51.552;6.716;2023-06-19T07:02:44;22.00;99.90
12817;DHT22;6473;51.552;6.716;2023-06-19T07:05:13;22.70;95.50
12817;DHT22;6473;51.552;6.716;2023-06-19T07:07:40;23.20;91.50
12817;DHT22;6473;51.552;6.716;2023-06-19T07:10:08;22.70;92.60
12817;DHT22;6473;51.552;6.716;2023-06-19T07:12:35;22.50;94.20
12817;DHT22;6473;51.552;6.716;2023-06-19T07:15:10;22.20;97.10
12817;DHT22;6473;51.552;6.716;2023-06-19T07:17:38;22.00;98.20
12817;DHT22;6473;51.552;6.716;2023-06-19T07:20:08;21.80;99.90
12817;DHT22;6473;51.552;6.716;2023-06-19T07:22:35;21.70;99.90
12817;DHT22;6473;51.552;6.716;2023-06-19T07:25:03;21.40;99.90
12817;DHT22;6473;51.552;6.716;2023-06-19T07:27:32;21.30;99.90
12817;DHT22;6473;51.552;6.716;2023-06-19T07:29:59;21.00;99.90
12817;DHT22;6473;51.552;6.716;2023-06-19T07:32:26;21.00;99.90
12817;DHT22;6473;51.552;6.716;2023-06-19T07:34:53;20.80;99.90
12817;DHT22;6473;51.552;6.716;2023-06-19T07:37:21;20.80;99.90
12817;DHT22;6473;51.552;6.716;2023-06-19T07:39:49;21.50;99.90
12817;DHT22;6473;51.552;6.716;2023-06-19T07:42:17;21.80;99.90
12817;DHT22;6473;51.552;6.716;2023-06-19T07:44:44;21.30;99.90
12817;DHT22;6473;51.552;6.716;2023-06-19T07:47:11;21.30;99.90
12817;DHT22;6473;51.552;6.716;2023-06-19T07:49:39;21.50;99.90
12817;DHT22;6473;51.552;6.716;2023-06-19T07:52:07;22.00;99.90
12817;DHT22;6473;51.552;6.716;2023-06-19T07:54:48;22.50;99.90
12817;DHT22;6473;51.552;6.716;2023-06-19T07:57:15;23.40;99.90
12817;DHT22;6473;51.552;6.716;2023-06-19T07:59:41;22.60;99.80
12817;DHT22;6473;51.552;6.716;2023-06-19T08:02:10;22.70;99.90
12817;DHT22;6473;51.552;6.716;2023-06-19T08:04:37;23.40;98.60
12817;DHT22;6473;51.552;6.716;2023-06-19T08:07:04;26.00;94.10
12817;DHT22;6473;51.552;6.716;2023-06-19T08:09:31;23.30;94.10
12817;DHT22;6473;51.552;6.716;2023-06-19T08:12:00;23.70;90.80
12817;DHT22;6473;51.552;6.716;2023-06-19T08:14:27;24.20;74.80
12817;DHT22;6473;51.552;6.716;2023-06-19T08:16:54;23.90;82.10
12817;DHT22;6473;51.552;6.716;2023-06-19T08:19:21;23.60;86.20
12817;DHT22;6473;51.552;6.716;2023-06-19T08:21:48;23.60;90.20
12817;DHT22;6473;51.552;6.716;2023-06-19T08:24:14;23.50;89.10
12817;DHT22;6473;51.552;6.716;2023-06-19T08:26:41;23.50;85.00
12817;DHT22;6473;51.552;6.716;2023-06-19T08:29:09;24.10;72.50
12817;DHT22;6473;51.552;6.716;2023-06-19T08:31:36;24.80;67.40
12817;DHT22;6473;51.552;6.716;2023-06-19T08:34:03;25.40;39.80
12817;DHT22;6473;51.552;6.716;2023-06-19T08:36:33;25.10;38.50
12817;DHT22;6473;51.552;6.716;2023-06-19T08:39:00;25.40;28.40
12817;DHT22;6473;51.552;6.716;2023-06-19T08:41:28;24.60;40.30
12817;DHT22;6473;51.552;6.716;2023-06-19T08:43:55;24.40;47.80
12817;DHT22;6473;51.552;6.716;2023-06-19T08:46:23;24.50;46.50
12817;DHT22;6473;51.552;6.716;2023-06-19T08:48:54;24.50;42.70
12817;DHT22;6473;51.552;6.716;2023-06-19T08:51:21;24.90;32.70
12817;DHT22;6473;51.552;6.716;2023-06-19T08:53:49;27.40;26.80
12817;DHT22;6473;51.552;6.716;2023-06-19T08:56:17;25.20;22.00
12817;DHT22;6473;51.552;6.716;2023-06-19T08:58:44;25.40;16.70
12817;DHT22;6473;51.552;6.716;2023-06-19T09:01:11;25.40;14.40
12817;DHT22;6473;51.552;6.716;2023-06-19T09:03:40;25.40;15.40
12817;DHT22;6473;51.552;6.716;2023-06-19T09:06:07;25.10;23.70
12817;DHT22;6473;51.552;6.716;2023-06-19T09:08:34;25.40;21.60
12817;DHT22;6473;51.552;6.716;2023-06-19T09:11:02;26.10;26.50
12817;DHT22;6473;51.552;6.716;2023-06-19T09:13:30;25.50;35.60
12817;DHT22;6473;51.552;6.716;2023-06-19T09:15:59;24.40;33.60
12817;DHT22;6473;51.552;6.716;2023-06-19T09:18:29;25.00;30.00
12817;DHT22;6473;51.552;6.716;2023-06-19T09:20:58;25.50;19.60
12817;DHT22;6473;51.552;6.716;2023-06-19T09:23:25;26.00;8.20
12817;DHT22;6473;51.552;6.716;2023-06-19T09:25:57;26.10;5.00
12817;DHT22;6473;51.552;6.716;2023-06-19T09:28:27;26.30;2.50
12817;DHT22;6473;51.552;6.716;2023-06-19T09:30:55;26.00;5.70
12817;DHT22;6473;51.552;6.716;2023-06-19T09:33:22;26.00;5.80
12817;DHT22;6473;51.552;6.716;2023-06-19T09:35:49;26.10;5.60
12817;DHT22;6473;51.552;6.716;2023-06-19T09:38:18;25.90;3.40
12817;DHT22;6473;51.552;6.716;2023-06-19T09:40:47;25.90;8.20
12817;DHT22;6473;51.552;6.716;2023-06-19T09:43:18;26.40;2.10
12817;DHT22;6473;51.552;6.716;2023-06-19T09:45:48;26.80;1.00
12817;DHT22;6473;51.552;6.716;2023-06-19T09:48:19;26.90;1.00
12817;DHT22;6473;51.552;6.716;2023-06-19T09:50:55;27.30;1.00
12817;DHT22;6473;51.552;6.716;2023-06-19T09:53:27;27.20;1.00
12817;DHT22;6473;51.552;6.716;2023-06-19T09:55:54;26.70;1.00
12817;DHT22;6473;51.552;6.716;2023-06-19T09:58:21;26.50;1.00
12817;DHT22;6473;51.552;6.716;2023-06-19T10:00:49;26.60;1.00
12817;DHT22;6473;51.552;6.716;2023-06-19T10:03:17;26.60;1.00
12817;DHT22;6473;51.552;6.716;2023-06-19T10:05:43;26.60;1.00
12817;DHT22;6473;51.552;6.716;2023-06-19T10:08:10;26.70;1.00
12817;DHT22;6473;51.552;6.716;2023-06-19T10:10:46;26.70;1.00
12817;DHT22;6473;51.552;6.716;2023-06-19T10:13:14;26.70;1.00
12817;DHT22;6473;51.552;6.716;2023-06-19T10:15:42;26.30;1.00
12817;DHT22;6473;51.552;6.716;2023-06-19T10:18:13;26.60;1.00
12817;DHT22;6473;51.552;6.716;2023-06-19T10:20:42;27.50;1.00
12817;DHT22;6473;51.552;6.716;2023-06-19T10:23:11;28.00;1.00
12817;DHT22;6473;51.552;6.716;2023-06-19T10:25:40;27.80;1.00
12817;DHT22;6473;51.552;6.716;2023-06-19T10:28:16;28.20;1.00
12817;DHT22;6473;51.552;6.716;2023-06-19T10:30:43;29.00;1.00
12817;DHT22;6473;51.552;6.716;2023-06-19T10:33:10;29.50;1.00
12817;DHT22;6473;51.552;6.716;2023-06-19T10:35:38;30.30;1.00
12817;DHT22;6473;51.552;6.716;2023-06-19T10:38:06;31.30;1.00
12817;DHT22;6473;51.552;6.716;2023-06-19T10:40:36;31.50;1.00
12817;DHT22;6473;51.552;6.716;2023-06-19T10:43:04;30.10;1.00
12817;DHT22;6473;51.552;6.716;2023-06-19T10:45:32;29.70;1.00
12817;DHT22;6473;51.552;6.716;2023-06-19T10:48:01;29.50;1.00
12817;DHT22;6473;51.552;6.716;2023-06-19T10:50:29;29.70;1.00
12817;DHT22;6473;51.552;6.716;2023-06-19T10:52:56;29.80;1.00
12817;DHT22;6473;51.552;6.716;2023-06-19T10:55:23;29.60;1.00
12817;DHT22;6473;51.552;6.716;2023-06-19T10:57:50;30.00;1.00
12817;DHT22;6473;51.552;6.716;2023-06-19T11:00:26;30.20;1.00
12817;DHT22;6473;51.552;6.716;2023-06-19T11:02:54;30.80;1.00
12817;DHT22;6473;51.552;6.716;2023-06-19T11:05:21;30.60;1.00
12817;DHT22;6473;51.552;6.716;2023-06-19T11:07:53;30.80;1.00
12817;DHT22;6473;51.552;6.716;2023-06-19T11:10:20;30.40;1.00
12817;DHT22;6473;51.552;6.716;2023-06-19T11:12:48;29.80;1.00
12817;DHT22;6473;51.552;6.716;2023-06-19T11:15:15;29.10;1.00
12817;DHT22;6473;51.552;6.716;2023-06-19T11:17:43;30.00;1.00
12817;DHT22;6473;51.552;6.716;2023-06-19T11:20:11;30.00;1.00
12817;DHT22;6473;51.552;6.716;2023-06-19T11:22:39;29.40;1.00
12817;DHT22;6473;51.552;6.716;2023-06-19T11:25:08;29.20;1.00
12817;DHT22;6473;51.552;6.716;2023-06-19T11:27:38;28.80;1.00
12817;DHT22;6473;51.552;6.716;2023-06-19T11:30:06;29.10;1.00
12817;DHT22;6473;51.552;6.716;2023-06-19T11:32:37;28.70;1.00
12817;DHT22;6473;51.552;6.716;2023-06-19T11:35:10;28.50;1.00
12817;DHT22;6473;51.552;6.716;2023-06-19T11:37:40;28.30;1.00
12817;DHT22;6473;51.552;6.716;2023-06-19T11:40:09;28.10;1.00
12817;DHT22;6473;51.552;6.716;2023-06-19T11:42:45;28.20;1.00
12817;DHT22;6473;51.552;6.716;2023-06-19T11:45:12;28.10;1.00
12817;DHT22;6473;51.552;6.716;2023-06-19T11:47:39;28.90;1.00
12817;DHT22;6473;51.552;6.716;2023-06-19T11:50:09;28.20;1.00
12817;DHT22;6473;51.552;6.716;2023-06-19T11:52:35;28.10;1.00
12817;DHT22;6473;51.552;6.716;2023-06-19T11:55:03;28.30;1.00
12817;DHT22;6473;51.552;6.716;2023-06-19T11:57:30;27.90;1.00
12817;DHT22;6473;51.552;6.716;2023-06-19T11:59:58;27.70;1.00
12817;DHT22;6473;51.552;6.716;2023-06-19T12:02:25;27.80;1.00
12817;DHT22;6473;51.552;6.716;2023-06-19T12:04:52;27.90;1.00
12817;DHT22;6473;51.552;6.716;2023-06-19T12:07:20;27.90;1.00
12817;DHT22;6473;51.552;6.716;2023-06-19T12:09:47;28.00;1.00
12817;DHT22;6473;51.552;6.716;2023-06-19T12:12:14;27.70;1.00
12817;DHT22;6473;51.552;6.716;2023-06-19T12:14:40;27.70;1.00
12817;DHT22;6473;51.552;6.716;2023-06-19T12:17:07;27.70;1.00
12817;DHT22;6473;51.552;6.716;2023-06-19T12:19:34;27.70;1.00
12817;DHT22;6473;51.552;6.716;2023-06-19T12:22:01;27.40;1.00
12817;DHT22;6473;51.552;6.716;2023-06-19T12:24:29;27.10;1.00
12817;DHT22;6473;51.552;6.716;2023-06-19T12:26:56;27.50;1.00
12817;DHT22;6473;51.552;6.716;2023-06-19T12:29:23;27.90;1.00
12817;DHT22;6473;51.552;6.716;2023-06-19T12:31:51;28.00;1.00
12817;DHT22;6473;51.552;6.716;2023-06-19T12:34:18;28.10;1.00
12817;DHT22;6473;51.552;6.716;2023-06-19T12:36:46;28.30;1.00
12817;DHT22;6473;51.552;6.716;2023-06-19T12:39:12;28.60;1.00
12817;DHT22;6473;51.552;6.716;2023-06-19T12:41:43;28.50;1.00
12817;DHT22;6473;51.552;6.716;2023-06-19T12:44:10;28.00;1.00
12817;DHT22;6473;51.552;6.716;2023-06-19T12:46:37;27.90;1.00
12817;DHT22;6473;51.552;6.716;2023-06-19T12:49:05;27.90;1.00
12817;DHT22;6473;51.552;6.716;2023-06-19T12:51:31;27.80;1.00
12817;DHT22;6473;51.552;6.716;2023-06-19T12:53:58;28.00;1.00
12817;DHT22;6473;51.552;6.716;2023-06-19T12:56:25;28.10;1.00
12817;DHT22;6473;51.552;6.716;2023-06-19T12:58:53;28.00;1.00
12817;DHT22;6473;51.552;6.716;2023-06-19T13:01:20;29.80;1.00
12817;DHT22;6473;51.552;6.716;2023-06-19T13:03:47;29.20;1.00
12817;DHT22;6473;51.552;6.716;2023-06-19T13:06:13;28.40;1.00
12817;DHT22;6473;51.552;6.716;2023-06-19T13:08:40;28.20;1.00
12817;DHT22;6473;51.552;6.716;2023-06-19T13:11:08;28.10;1.00
12817;DHT22;6473;51.552;6.716;2023-06-19T13:13:35;28.10;1.00
12817;DHT22;6473;51.552;6.716;2023-06-19T13:16:03;28.40;1.00
12817;DHT22;6473;51.552;6.716;2023-06-19T13:18:30;28.60;1.00
12817;DHT22;6473;51.552;6.716;2023-06-19T13:20:57;28.70;1.00
12817;DHT22;6473;51.552;6.716;2023-06-19T13:26:14;29.20;1.00
12817;DHT22;6473;51.552;6.716;2023-06-19T13:28:41;28.50;1.00
12817;DHT22;6473;51.552;6.716;2023-06-19T13:31:10;28.30;1.00
12817;DHT22;6473;51.552;6.716;2023-06-19T13:33:37;28.00;1.00
12817;DHT22;6473;51.552;6.716;2023-06-19T13:36:04;28.10;1.00
12817;DHT22;6473;51.552;6.716;2023-06-19T13:38:31;28.00;1.00
12817;DHT22;6473;51.552;6.716;2023-06-19T13:40:58;28.10;1.00
12817;DHT22;6473;51.552;6.716;2023-06-19T13:43:25;28.10;1.00
12817;DHT22;6473;51.552;6.716;2023-06-19T13:45:51;28.30;1.00
12817;DHT22;6473;51.552;6.716;2023-06-19T13:48:19;28.50;1.00
12817;DHT22;6473;51.552;6.716;2023-06-19T13:50:47;28.70;1.00
12817;DHT22;6473;51.552;6.716;2023-06-19T13:53:13;28.90;1.00
12817;DHT22;6473;51.552;6.716;2023-06-19T13:55:40;28.70;1.00
12817;DHT22;6473;51.552;6.716;2023-06-19T13:58:07;28.50;1.00
12817;DHT22;6473;51.552;6.716;2023-06-19T14:00:34;28.50;1.00
12817;DHT22;6473;51.552;6.716;2023-06-19T14:03:02;28.70;1.00
12817;DHT22;6473;51.552;6.716;2023-06-19T14:05:33;28.60;1.00
12817;DHT22;6473;51.552;6.716;2023-06-19T14:08:00;28.40;1.00
12817;DHT22;6473;51.552;6.716;2023-06-19T14:10:27;28.30;1.00
12817;DHT22;6473;51.552;6.716;2023-06-19T14:12:53;28.10;1.00
12817;DHT22;6473;51.552;6.716;2023-06-19T14:15:20;28.30;1.00
12817;DHT22;6473;51.552;6.716;2023-06-19T14:17:47;28.80;1.00
12817;DHT22;6473;51.552;6.716;2023-06-19T14:20:14;28.70;1.00
12817;DHT22;6473;51.552;6.716;2023-06-19T14:22:42;28.70;1.00
12817;DHT22;6473;51.552;6.716;2023-06-19T14:25:09;28.80;1.00
12817;DHT22;6473;51.552;6.716;2023-06-19T14:27:36;28.70;1.00
12817;DHT22;6473;51.552;6.716;2023-06-19T14:30:03;29.30;1.00
12817;DHT22;6473;51.552;6.716;2023-06-19T14:32:30;28.60;1.00
12817;DHT22;6473;51.552;6.716;2023-06-19T14:34:57;28.60;1.00
12817;DHT22;6473;51.552;6.716;2023-06-19T14:37:24;28.80;1.00
12817;DHT22;6473;51.552;6.716;2023-06-19T14:39:52;28.80;1.00
12817;DHT22;6473;51.552;6.716;2023-06-19T14:42:20;28.70;1.00
12817;DHT22;6473;51.552;6.716;2023-06-19T14:44:47;28.90;1.00
12817;DHT22;6473;51.552;6.716;2023-06-19T14:47:14;28.50;1.00
12817;DHT22;6473;51.552;6.716;2023-06-19T14:49:40;30.70;1.00
12817;DHT22;6473;51.552;6.716;2023-06-19T14:52:08;30.00;1.00
12817;DHT22;6473;51.552;6.716;2023-06-19T14:54:35;29.80;1.00
12817;DHT22;6473;51.552;6.716;2023-06-19T14:57:03;28.40;1.00
12817;DHT22;6473;51.552;6.716;2023-06-19T14:59:30;28.20;1.00
12817;DHT22;6473;51.552;6.716;2023-06-19T15:01:57;28.50;1.00
12817;DHT22;6473;51.552;6.716;2023-06-19T15:04:24;28.60;1.00
12817;DHT22;6473;51.552;6.716;2023-06-19T15:06:51;28.80;1.00
12817;DHT22;6473;51.552;6.716;2023-06-19T15:09:18;28.80;1.00
12817;DHT22;6473;51.552;6.716;2023-06-19T15:11:44;30.00;1.00
12817;DHT22;6473;51.552;6.716;2023-06-19T15:14:12;29.30;1.00
12817;DHT22;6473;51.552;6.716;2023-06-19T15:16:39;28.40;1.00
12817;DHT22;6473;51.552;6.716;2023-06-19T15:19:06;28.70;1.00
12817;DHT22;6473;51.552;6.716;2023-06-19T15:21:33;28.70;1.00
12817;DHT22;6473;51.552;6.716;2023-06-19T15:24:00;28.80;1.00
12817;DHT22;6473;51.552;6.716;2023-06-19T15:26:27;28.70;1.00
12817;DHT22;6473;51.552;6.716;2023-06-19T15:28:53;28.60;1.00
12817;DHT22;6473;51.552;6.716;2023-06-19T15:31:23;28.50;1.00
12817;DHT22;6473;51.552;6.716;2023-06-19T15:33:50;28.20;1.00
12817;DHT22;6473;51.552;6.716;2023-06-19T15:36:17;28.30;1.00
12817;DHT22;6473;51.552;6.716;2023-06-19T15:38:44;28.40;1.00
12817;DHT22;6473;51.552;6.716;2023-06-19T15:41:11;28.50;1.00
12817;DHT22;6473;51.552;6.716;2023-06-19T15:43:38;28.70;1.00
12817;DHT22;6473;51.552;6.716;2023-06-19T15:46:05;28.50;1.00
12817;DHT22;6473;51.552;6.716;2023-06-19T15:48:35;28.20;1.00
12817;DHT22;6473;51.552;6.716;2023-06-19T15:51:02;28.20;1.00
12817;DHT22;6473;51.552;6.716;2023-06-19T15:53:29;28.00;1.00
12817;DHT22;6473;51.552;6.716;2023-06-19T15:55:56;28.00;1.00
12817;DHT22;6473;51.552;6.716;2023-06-19T15:58:23;28.10;1.00
12817;DHT22;6473;51.552;6.716;2023-06-19T16:00:49;28.30;1.00